createdAt,value
2022-11-18T00:01:12.372Z,35.07
2022-11-18T00:03:40.685Z,36.70
2022-11-18T00:06:11.424Z,34.70
2022-11-18T00:08:38.440Z,32.87
2022-11-18T00:11:07.523Z,35.80
2022-11-18T00:13:53.290Z,35.80
2022-11-18T00:16:20.243Z,35.43
2022-11-18T00:18:47.234Z,33.50
2022-11-18T00:21:14.631Z,34.40
2022-11-18T00:23:41.685Z,34.33
2022-11-18T00:26:12.403Z,36.20
2022-11-18T00:28:40.333Z,36.97
2022-11-18T00:31:13.786Z,38.27
2022-11-18T00:33:41.287Z,35.17
2022-11-18T00:36:11.176Z,34.83
2022-11-18T00:38:39.026Z,36.10
2022-11-18T00:41:12.828Z,34.47
2022-11-18T00:43:40.279Z,35.67
2022-11-18T00:46:09.829Z,35.23
2022-11-18T00:48:37.302Z,35.60
2022-11-18T00:51:14.679Z,36.97
2022-11-18T00:53:42.166Z,35.63
2022-11-18T00:56:10.171Z,35.67
2022-11-18T00:58:37.596Z,36.13
2022-11-18T01:01:05.099Z,38.17
2022-11-18T01:03:32.333Z,36.67
2022-11-18T01:05:59.328Z,37.10
2022-11-18T01:08:26.334Z,36.57
2022-11-18T01:10:53.740Z,39.53
2022-11-18T01:13:23.969Z,37.90
2022-11-18T01:15:53.236Z,35.00
2022-11-18T01:18:26.185Z,36.23
2022-11-18T01:20:53.716Z,36.03
2022-11-18T01:23:21.396Z,36.63
2022-11-18T01:25:49.777Z,36.00
2022-11-18T01:28:23.353Z,36.60
2022-11-18T01:30:51.357Z,38.23
2022-11-18T01:33:18.436Z,37.27
2022-11-18T01:35:45.578Z,37.37
2022-11-18T01:38:14.004Z,36.77
2022-11-18T01:40:41.646Z,37.57
2022-11-18T01:43:17.540Z,40.60
2022-11-18T01:45:47.059Z,40.47
2022-11-18T01:48:20.545Z,39.53
2022-11-18T01:50:52.666Z,37.93
2022-11-18T01:53:24.886Z,38.27
2022-11-18T01:55:54.043Z,39.33
2022-11-18T01:58:44.248Z,37.73
2022-11-18T02:01:12.190Z,37.93
2022-11-18T02:03:39.871Z,39.47
2022-11-18T02:06:08.621Z,38.43
2022-11-18T02:08:40.136Z,40.33
2022-11-18T02:11:31.287Z,40.67
2022-11-18T02:14:00.753Z,37.50
2022-11-18T02:16:52.698Z,37.93
2022-11-18T02:19:31.652Z,37.77
2022-11-18T02:22:16.705Z,38.00
2022-11-18T02:25:07.073Z,35.63
2022-11-18T02:28:11.134Z,37.93
2022-11-18T02:30:49.505Z,38.03
2022-11-18T02:33:39.648Z,37.93
2022-11-18T02:36:51.177Z,36.53
2022-11-18T02:39:24.804Z,37.33
2022-11-18T02:41:56.307Z,37.20
2022-11-18T02:44:26.612Z,37.47
2022-11-18T02:46:58.403Z,37.00
2022-11-18T02:49:42.344Z,37.73
2022-11-18T02:52:12.021Z,39.70
2022-11-18T02:54:42.307Z,39.30
2022-11-18T02:57:10.041Z,40.40
2022-11-18T02:59:37.100Z,39.67
2022-11-18T03:02:04.437Z,38.40
2022-11-18T03:04:32.672Z,38.23
2022-11-18T03:07:27.306Z,40.47
2022-11-18T03:09:55.138Z,39.13
2022-11-18T03:12:55.877Z,38.73
2022-11-18T03:15:31.154Z,38.27
2022-11-18T03:18:06.856Z,37.20
2022-11-18T03:20:42.250Z,38.40
2022-11-18T03:23:12.247Z,40.23
2022-11-18T03:25:56.268Z,38.17
2022-11-18T03:28:25.819Z,39.10
2022-11-18T03:31:06.619Z,40.10
2022-11-18T03:33:39.354Z,39.70
2022-11-18T03:36:09.912Z,40.60
2022-11-18T03:38:50.444Z,40.80
2022-11-18T03:41:20.173Z,40.90
2022-11-18T03:43:58.354Z,41.33
2022-11-18T03:46:48.107Z,42.63
2022-11-18T03:49:21.632Z,41.57
2022-11-18T03:51:56.104Z,42.63
2022-11-18T03:54:27.437Z,43.23
2022-11-18T03:57:01.769Z,42.53
2022-11-18T03:59:50.774Z,42.53
2022-11-18T04:02:29.863Z,43.50
2022-11-18T04:04:58.627Z,43.17
2022-11-18T04:07:45.215Z,41.50
2022-11-18T04:10:19.312Z,41.57
2022-11-18T04:12:58.568Z,42.37
2022-11-18T04:15:30.215Z,43.93
2022-11-18T04:17:57.271Z,42.93
2022-11-18T04:20:24.997Z,42.47
2022-11-18T04:22:51.965Z,42.13
2022-11-18T04:25:18.947Z,42.60
2022-11-18T04:27:45.912Z,40.70
2022-11-18T04:30:14.702Z,40.47
2022-11-18T04:32:41.732Z,39.63
2022-11-18T04:35:08.981Z,39.77
2022-11-18T04:37:36.009Z,40.57
2022-11-18T04:40:03.865Z,41.50
2022-11-18T04:42:30.950Z,40.47
2022-11-18T04:44:58.554Z,40.80
2022-11-18T04:47:25.812Z,41.30
2022-11-18T04:49:52.774Z,41.07
2022-11-18T04:52:20.162Z,42.50
2022-11-18T04:54:47.192Z,41.50
2022-11-18T04:57:14.439Z,43.70
2022-11-18T04:59:41.555Z,41.77
2022-11-18T05:02:08.767Z,42.77
2022-11-18T05:04:35.914Z,41.67
2022-11-18T05:07:05.398Z,42.00
2022-11-18T05:09:32.658Z,41.47
2022-11-18T05:12:18.885Z,41.37
2022-11-18T05:14:49.940Z,41.03
2022-11-18T05:17:17.750Z,40.47
2022-11-18T05:19:44.767Z,41.93
2022-11-18T05:22:11.820Z,41.37
2022-11-18T05:24:38.753Z,40.57
2022-11-18T05:27:05.779Z,41.47
2022-11-18T05:29:33.645Z,43.17
2022-11-18T05:32:00.767Z,44.33
2022-11-18T05:34:27.983Z,46.07
2022-11-18T05:36:55.005Z,46.30
2022-11-18T05:39:22.062Z,44.80
2022-11-18T05:42:07.626Z,43.93
2022-11-18T05:44:34.665Z,40.10
2022-11-18T05:47:01.647Z,41.73
2022-11-18T05:49:28.667Z,41.87
2022-11-18T05:51:55.709Z,43.37
2022-11-18T05:54:23.259Z,43.03
2022-11-18T05:56:50.429Z,45.10
2022-11-18T05:59:17.965Z,43.20
2022-11-18T06:01:45.082Z,43.10
2022-11-18T06:04:20.393Z,41.67
2022-11-18T06:06:49.368Z,41.80
2022-11-18T06:09:20.632Z,42.17
2022-11-18T06:11:53.283Z,43.27
2022-11-18T06:14:26.657Z,41.63
2022-11-18T06:16:58.032Z,39.63
2022-11-18T06:19:26.204Z,39.13
2022-11-18T06:21:54.025Z,39.00
2022-11-18T06:24:21.200Z,36.33
2022-11-18T06:26:48.806Z,37.20
2022-11-18T06:29:22.891Z,36.43
2022-11-18T06:31:54.507Z,33.23
2022-11-18T06:34:21.630Z,36.30
2022-11-18T06:36:48.607Z,35.93
2022-11-18T06:39:15.955Z,35.50
2022-11-18T06:41:43.133Z,34.03
2022-11-18T06:44:12.850Z,32.70
2022-11-18T06:46:58.178Z,34.40
2022-11-18T06:49:27.717Z,33.13
2022-11-18T06:51:55.380Z,33.83
2022-11-18T06:54:22.375Z,32.70
2022-11-18T06:56:49.450Z,33.03
2022-11-18T06:59:22.218Z,31.90
2022-11-18T07:01:49.325Z,31.70
2022-11-18T07:04:16.431Z,31.77
2022-11-18T07:06:43.470Z,31.83
2022-11-18T07:09:10.479Z,29.57
2022-11-18T07:11:40.433Z,31.80
2022-11-18T07:14:10.608Z,31.07
2022-11-18T07:16:37.715Z,32.57
2022-11-18T07:19:12.462Z,31.67
2022-11-18T07:21:40.162Z,32.23
2022-11-18T07:24:08.492Z,33.13
2022-11-18T07:26:35.751Z,33.47
2022-11-18T07:29:02.842Z,34.70
2022-11-18T07:31:29.936Z,34.83
2022-11-18T07:33:57.317Z,34.77
2022-11-18T07:36:32.275Z,34.53
2022-11-18T07:39:03.379Z,32.53
2022-11-18T07:41:30.902Z,35.43
2022-11-18T07:44:01.134Z,34.70
2022-11-18T07:46:37.141Z,35.70
2022-11-18T07:49:07.147Z,36.03
2022-11-18T07:51:36.687Z,36.70
2022-11-18T07:54:08.922Z,37.03
2022-11-18T07:56:35.990Z,38.33
2022-11-18T07:59:03.129Z,36.20
2022-11-18T08:01:31.259Z,37.03
2022-11-18T08:04:04.774Z,38.27
2022-11-18T08:06:33.919Z,36.83
2022-11-18T08:09:01.414Z,37.97
2022-11-18T08:11:28.636Z,37.10
2022-11-18T08:13:55.719Z,35.43
2022-11-18T08:16:24.832Z,38.47
2022-11-18T08:18:52.926Z,36.73
2022-11-18T08:21:21.970Z,37.13
2022-11-18T08:23:53.637Z,36.30
2022-11-18T08:26:21.576Z,35.50
2022-11-18T08:28:49.574Z,34.90
2022-11-18T08:31:19.549Z,35.00
2022-11-18T08:33:46.686Z,35.00
2022-11-18T08:36:18.737Z,35.47
2022-11-18T08:38:45.766Z,35.13
2022-11-18T08:41:19.303Z,35.67
2022-11-18T08:43:46.458Z,35.90
2022-11-18T08:46:13.469Z,35.03
2022-11-18T08:48:40.541Z,36.73
2022-11-18T08:51:11.357Z,36.13
2022-11-18T08:53:38.556Z,36.67
2022-11-18T08:56:05.792Z,35.90
2022-11-18T08:58:32.986Z,35.60
2022-11-18T09:01:05.876Z,34.67
2022-11-18T09:03:32.902Z,34.53
2022-11-18T09:06:17.747Z,38.27
2022-11-18T09:08:45.929Z,37.50
2022-11-18T09:11:18.302Z,38.43
2022-11-18T09:14:53.348Z,39.50
2022-11-18T09:16:34.760Z,40.70
2022-11-18T09:19:24.491Z,39.07
2022-11-18T09:21:49.700Z,40.00
2022-11-18T09:24:17.530Z,38.27
2022-11-18T09:26:44.721Z,38.10
2022-11-18T09:29:11.850Z,40.23
2022-11-18T09:31:38.911Z,39.57
2022-11-18T09:34:05.988Z,39.80
2022-11-18T09:36:33.007Z,39.23
2022-11-18T09:39:00.257Z,41.20
2022-11-18T09:41:33.312Z,40.60
2022-11-18T09:44:00.271Z,39.77
2022-11-18T09:46:48.325Z,39.77
2022-11-18T09:49:26.434Z,38.60
2022-11-18T09:51:54.775Z,40.50
2022-11-18T09:54:35.125Z,41.27
2022-11-18T09:57:02.856Z,41.13
2022-11-18T09:59:32.485Z,41.83
2022-11-18T10:02:30.199Z,41.77
2022-11-18T10:05:07.523Z,40.97
2022-11-18T10:07:49.693Z,42.60
2022-11-18T10:10:22.773Z,43.00
2022-11-18T10:12:57.120Z,42.77
2022-11-18T10:16:03.825Z,41.23
2022-11-18T10:19:00.280Z,41.53
2022-11-18T10:21:49.055Z,40.80
2022-11-18T10:24:21.517Z,38.73
2022-11-18T10:26:54.255Z,40.53
2022-11-18T10:29:21.992Z,39.37
2022-11-18T10:32:08.135Z,39.20
2022-11-18T10:34:50.325Z,38.50
2022-11-18T10:38:06.417Z,39.63
2022-11-18T10:40:28.175Z,38.07
2022-11-18T10:42:55.986Z,38.93
2022-11-18T10:45:22.965Z,39.43
2022-11-18T10:48:09.900Z,37.67
2022-11-18T10:50:42.799Z,35.00
2022-11-18T10:53:31.259Z,36.63
2022-11-18T10:56:00.466Z,37.43
2022-11-18T10:58:30.373Z,35.20
2022-11-18T11:01:23.554Z,37.37
2022-11-18T11:04:16.040Z,37.83
2022-11-18T11:06:43.280Z,38.17
2022-11-18T11:09:16.276Z,38.03
2022-11-18T11:11:55.317Z,38.07
2022-11-18T11:14:31.197Z,35.97
2022-11-18T11:17:06.992Z,36.43
2022-11-18T11:19:49.262Z,38.70
2022-11-18T11:22:16.681Z,36.10
2022-11-18T11:24:44.468Z,35.47
2022-11-18T11:30:28.163Z,36.97
2022-11-18T11:33:01.315Z,33.30
2022-11-18T11:35:51.469Z,32.13
2022-11-18T11:38:27.394Z,28.30
2022-11-18T11:41:22.080Z,28.00
2022-11-18T11:44:04.533Z,27.73
2022-11-18T11:47:09.546Z,24.20
2022-11-18T11:50:03.531Z,26.93
2022-11-18T11:52:49.128Z,25.60
2022-11-18T11:55:35.786Z,26.40
2022-11-18T11:58:31.914Z,25.97
2022-11-18T12:01:17.565Z,25.27
2022-11-18T12:03:53.137Z,26.77
2022-11-18T12:06:20.447Z,28.07
2022-11-18T12:09:03.204Z,30.47
2022-11-18T12:12:33.059Z,27.03
2022-11-18T12:15:07.011Z,27.37
2022-11-18T12:17:59.424Z,27.57
2022-11-18T12:20:48.454Z,26.80
2022-11-18T12:23:15.495Z,26.90
2022-11-18T12:25:48.696Z,27.67
2022-11-18T12:28:34.570Z,27.30
2022-11-18T12:31:19.656Z,26.83
2022-11-18T12:33:47.674Z,25.77
2022-11-18T12:36:27.030Z,24.90
2022-11-18T12:38:55.057Z,25.27
2022-11-18T12:41:58.691Z,25.60
2022-11-18T12:44:27.871Z,24.97
2022-11-18T12:46:59.796Z,25.90
2022-11-18T12:49:26.851Z,24.70
2022-11-18T12:51:55.283Z,25.47
2022-11-18T12:54:37.252Z,25.70
2022-11-18T12:57:15.882Z,26.57
2022-11-18T12:59:43.026Z,26.50
2022-11-18T13:02:30.680Z,26.63
2022-11-18T13:05:13.063Z,28.00
2022-11-18T13:08:13.438Z,27.13
2022-11-18T13:11:22.103Z,27.13
2022-11-18T13:14:11.737Z,24.03
2022-11-18T13:16:57.639Z,22.87
2022-11-18T13:19:25.151Z,22.20
2022-11-18T13:22:16.225Z,21.67
2022-11-18T13:24:49.266Z,22.03
2022-11-18T13:27:39.561Z,21.43
2022-11-18T13:30:14.086Z,21.57
2022-11-18T13:32:46.084Z,22.63
2022-11-18T13:35:19.852Z,22.60
2022-11-18T13:37:52.746Z,24.60
2022-11-18T13:40:27.499Z,23.00
2022-11-18T13:42:54.548Z,24.13
2022-11-18T13:45:25.673Z,23.60
2022-11-18T13:48:01.549Z,23.77
2022-11-18T13:50:35.281Z,24.83
2022-11-18T13:53:09.484Z,24.30
2022-11-18T13:56:02.279Z,24.20
2022-11-18T13:58:33.934Z,24.60
2022-11-18T14:01:33.966Z,23.47
2022-11-18T14:04:06.843Z,22.87
2022-11-18T14:06:36.842Z,24.53
2022-11-18T14:09:12.809Z,24.97
2022-11-18T14:11:45.736Z,25.30
2022-11-18T14:14:26.924Z,25.77
2022-11-18T14:16:54.355Z,25.60
2022-11-18T14:19:31.901Z,25.33
2022-11-18T14:22:11.684Z,25.07
2022-11-18T14:24:40.655Z,24.20
2022-11-18T14:27:29.331Z,23.30
2022-11-18T14:29:56.691Z,23.33
2022-11-18T14:32:23.716Z,25.83
2022-11-18T14:35:02.950Z,25.73
2022-11-18T14:37:30.467Z,26.70
2022-11-18T14:39:58.440Z,26.00
2022-11-18T14:42:25.518Z,26.03
2022-11-18T14:44:52.517Z,25.07
2022-11-18T14:47:30.254Z,23.93
2022-11-18T14:49:57.239Z,23.00
2022-11-18T14:52:24.306Z,23.47
2022-11-18T14:54:52.799Z,23.53
2022-11-18T14:57:19.767Z,22.40
2022-11-18T14:59:46.892Z,23.43
2022-11-18T15:02:16.437Z,23.87
2022-11-18T15:04:43.801Z,22.70
2022-11-18T15:07:18.544Z,23.40
2022-11-18T15:09:50.809Z,22.50
2022-11-18T15:12:17.807Z,23.87
2022-11-18T15:14:44.790Z,23.33
2022-11-18T15:17:13.313Z,23.97
2022-11-18T15:19:41.688Z,24.17
2022-11-18T15:22:09.589Z,24.77
2022-11-18T15:24:36.666Z,23.67
2022-11-18T15:27:05.332Z,23.40
2022-11-18T15:29:32.768Z,23.00
2022-11-18T15:32:00.262Z,24.03
2022-11-18T15:34:27.395Z,23.83
2022-11-18T15:36:54.451Z,24.70
2022-11-18T15:39:21.681Z,25.50
2022-11-18T15:41:48.579Z,25.20
2022-11-18T15:44:16.170Z,26.23
2022-11-18T15:46:47.837Z,26.67
2022-11-18T15:49:16.438Z,25.83
2022-11-18T15:51:43.562Z,23.97
2022-11-18T15:54:10.668Z,25.07
2022-11-18T15:56:39.749Z,25.30
2022-11-18T15:59:10.275Z,28.60
2022-11-18T16:01:45.692Z,27.07
2022-11-18T16:04:14.343Z,25.97
2022-11-18T16:06:44.458Z,25.20
2022-11-18T16:09:13.135Z,26.83
2022-11-18T16:11:58.779Z,27.10
2022-11-18T16:14:26.155Z,26.20
2022-11-18T16:16:54.832Z,27.30
2022-11-18T16:19:24.763Z,27.30
2022-11-18T16:21:57.371Z,29.10
2022-11-18T16:24:29.056Z,26.63
2022-11-18T16:26:56.754Z,28.63
2022-11-18T16:29:24.533Z,28.60
2022-11-18T16:31:53.033Z,28.77
2022-11-18T16:34:28.323Z,27.90
2022-11-18T16:36:57.371Z,28.40
2022-11-18T16:39:26.445Z,26.63
2022-11-18T16:41:55.539Z,28.37
2022-11-18T16:44:23.568Z,25.33
2022-11-18T16:46:56.067Z,24.73
2022-11-18T16:49:25.485Z,25.57
2022-11-18T16:51:54.907Z,26.53
2022-11-18T16:54:24.200Z,26.50
2022-11-18T16:56:52.348Z,23.10
2022-11-18T16:59:21.954Z,23.07
2022-11-18T17:01:53.100Z,27.60
2022-11-18T17:04:21.311Z,26.00
2022-11-18T17:06:48.621Z,23.17
2022-11-18T17:09:18.935Z,24.90
2022-11-18T17:11:46.565Z,23.23
2022-11-18T17:14:14.005Z,25.57
2022-11-18T17:16:41.503Z,25.77
2022-11-18T17:19:16.284Z,25.93
2022-11-18T17:21:44.047Z,24.30
2022-11-18T17:24:14.024Z,27.07
2022-11-18T17:26:41.776Z,27.63
2022-11-18T17:29:11.526Z,30.07
2022-11-18T17:31:39.498Z,24.37
2022-11-18T17:34:06.583Z,25.83
2022-11-18T17:36:33.558Z,27.73
2022-11-18T17:39:01.213Z,29.63
2022-11-18T17:41:47.700Z,29.80
2022-11-18T17:44:17.346Z,30.33
2022-11-18T17:46:47.123Z,25.53
2022-11-18T17:49:18.067Z,27.37
2022-11-18T17:51:48.627Z,28.17
2022-11-18T17:54:16.403Z,28.80
2022-11-18T17:56:43.602Z,25.13
2022-11-18T17:59:10.885Z,29.13
2022-11-18T18:01:38.022Z,26.87
2022-11-18T18:04:05.186Z,29.40
2022-11-18T18:06:32.324Z,29.97
2022-11-18T18:08:59.444Z,29.13
2022-11-18T18:11:26.988Z,29.87
2022-11-18T18:14:12.772Z,25.23
2022-11-18T18:16:48.170Z,23.60
2022-11-18T18:19:21.061Z,22.50
2022-11-18T18:21:48.249Z,22.17
2022-11-18T18:24:18.352Z,21.87
2022-11-18T18:26:45.608Z,24.83
2022-11-18T18:29:12.841Z,22.10
2022-11-18T18:31:40.175Z,21.03
2022-11-18T18:34:07.314Z,23.23
2022-11-18T18:36:34.385Z,25.30
2022-11-18T18:39:02.471Z,24.40
2022-11-18T18:41:30.531Z,23.20
2022-11-18T18:43:57.715Z,29.37
2022-11-18T18:46:29.658Z,28.30
2022-11-18T18:49:06.541Z,25.53
2022-11-18T18:51:39.579Z,27.03
2022-11-18T18:54:08.113Z,27.47
2022-11-18T18:56:35.158Z,28.00
2022-11-18T18:59:02.573Z,25.50
2022-11-18T19:01:29.849Z,25.27
2022-11-18T19:03:59.616Z,25.63
2022-11-18T19:09:16.714Z,27.47
2022-11-18T19:12:02.770Z,28.07
2022-11-18T19:14:30.038Z,25.53
2022-11-18T19:16:57.669Z,23.97
2022-11-18T19:19:45.158Z,22.17
2022-11-18T19:22:14.398Z,28.17
2022-11-18T19:27:30.219Z,27.33
2022-11-18T19:29:57.501Z,24.53
2022-11-18T19:32:24.892Z,24.00
2022-11-18T19:34:52.089Z,22.97
2022-11-18T19:37:19.061Z,25.07
2022-11-18T19:39:46.010Z,24.53
2022-11-18T19:42:13.041Z,27.57
2022-11-18T19:44:40.017Z,27.80
2022-11-18T19:47:07.256Z,27.43
2022-11-18T19:49:34.315Z,26.07
2022-11-18T19:52:01.387Z,28.00
2022-11-18T19:54:28.563Z,26.13
2022-11-18T19:56:55.555Z,27.03
2022-11-18T19:59:22.580Z,30.10
2022-11-18T20:01:49.706Z,31.00
2022-11-18T20:04:16.752Z,29.43
2022-11-18T20:06:43.856Z,32.27
2022-11-18T20:09:11.707Z,29.50
2022-11-18T20:11:39.120Z,31.50
2022-11-18T20:14:08.332Z,33.07
2022-11-18T20:16:37.106Z,33.43
2022-11-18T20:19:10.851Z,32.60
2022-11-18T20:21:39.292Z,32.33
2022-11-18T20:24:07.952Z,31.37
2022-11-18T20:26:39.701Z,31.27
2022-11-18T20:29:08.055Z,28.27
2022-11-18T20:31:36.466Z,30.40
2022-11-18T20:34:04.623Z,29.37
2022-11-18T20:36:34.578Z,30.57
2022-11-18T20:39:07.055Z,29.53
2022-11-18T20:41:36.236Z,29.30
2022-11-18T20:44:03.660Z,25.23
2022-11-18T20:46:30.990Z,27.37
2022-11-18T20:48:58.047Z,28.00
2022-11-18T20:51:27.533Z,28.77
2022-11-18T20:53:56.272Z,27.20
2022-11-18T20:56:26.056Z,30.60
2022-11-18T20:58:53.491Z,29.43
2022-11-18T21:01:26.120Z,30.80
2022-11-18T21:03:55.457Z,29.50
2022-11-18T21:06:24.780Z,28.70
2022-11-18T21:08:56.282Z,29.77
2022-11-18T21:11:23.492Z,28.73
2022-11-18T21:14:09.202Z,27.87
2022-11-18T21:16:36.308Z,27.60
2022-11-18T21:19:04.679Z,23.07
2022-11-18T21:21:48.873Z,26.63
2022-11-18T21:24:33.175Z,25.00
2022-11-18T21:27:02.196Z,22.40
2022-11-18T21:29:31.356Z,26.97
2022-11-18T21:32:01.582Z,27.33
2022-11-18T21:34:29.352Z,26.47
2022-11-18T21:36:56.412Z,27.00
2022-11-18T21:39:25.104Z,28.03
2022-11-18T21:41:56.255Z,25.60
2022-11-18T21:44:26.219Z,26.03
2022-11-18T21:46:53.233Z,27.57
2022-11-18T21:49:20.483Z,26.63
2022-11-18T21:51:47.711Z,25.77
2022-11-18T21:54:16.089Z,26.30
2022-11-18T21:56:43.329Z,26.27
2022-11-18T21:59:10.364Z,27.13
2022-11-18T22:01:37.352Z,27.23
2022-11-18T22:04:05.797Z,25.57
2022-11-18T22:06:34.446Z,26.53
2022-11-18T22:09:03.788Z,26.60
2022-11-18T22:11:31.157Z,26.53
2022-11-18T22:13:58.420Z,24.97
2022-11-18T22:16:27.138Z,26.60
2022-11-18T22:19:01.415Z,26.27
2022-11-18T22:21:32.230Z,26.17
2022-11-18T22:24:00.823Z,19.67
2022-11-18T22:26:28.779Z,19.20
2022-11-18T22:28:57.725Z,20.47
2022-11-18T22:31:26.796Z,23.03
2022-11-18T22:33:55.590Z,23.17
2022-11-18T22:36:24.300Z,23.20
2022-11-18T22:38:51.354Z,24.90
2022-11-18T22:41:39.070Z,22.37
2022-11-18T22:44:08.400Z,23.63
2022-11-18T22:46:40.495Z,24.50
2022-11-18T22:49:09.129Z,26.00
2022-11-18T22:51:37.404Z,24.97
2022-11-18T22:56:54.607Z,23.40
2022-11-18T22:59:21.947Z,24.50
2022-11-18T23:01:53.677Z,23.13
2022-11-18T23:04:20.883Z,23.93
2022-11-18T23:06:49.271Z,23.30
2022-11-18T23:09:17.240Z,23.50
2022-11-18T23:12:03.028Z,24.50
2022-11-18T23:14:30.093Z,25.03
2022-11-18T23:16:57.054Z,28.13
2022-11-18T23:19:24.029Z,25.17
2022-11-18T23:21:51.262Z,23.40
2022-11-18T23:24:19.333Z,24.57
2022-11-18T23:26:46.995Z,25.23
2022-11-18T23:29:14.989Z,23.87
2022-11-18T23:31:43.662Z,24.00
2022-11-18T23:34:12.509Z,20.60
2022-11-18T23:36:39.705Z,23.33
2022-11-18T23:39:07.084Z,23.33
2022-11-18T23:41:34.445Z,24.00
2022-11-18T23:44:01.569Z,23.00
2022-11-18T23:46:28.738Z,23.87
2022-11-18T23:48:55.811Z,23.00
2022-11-18T23:51:24.128Z,22.90
2022-11-18T23:53:58.107Z,23.03
2022-11-18T23:56:26.829Z,25.10
2022-11-18T23:58:55.295Z,23.90
